sensor_id;sensor_type;location;lat;lon;timestamp;pressure;altitude;pressure_sealevel;temperature;humidity
11124;BME280;5616;42.692;23.312;2022-07-12T00:01:57;95567.00;;;14.96;61.00
11124;BME280;5616;42.692;23.312;2022-07-12T00:04:23;95574.41;;;14.93;61.06
11124;BME280;5616;42.692;23.312;2022-07-12T00:06:50;95569.00;;;14.94;61.60
11124;BME280;5616;42.692;23.312;2022-07-12T00:09:17;95567.22;;;15.01;60.58
11124;BME280;5616;42.692;23.312;2022-07-12T00:11:46;95562.44;;;15.05;59.81
11124;BME280;5616;42.692;23.312;2022-07-12T00:14:12;95568.06;;;15.15;60.60
11124;BME280;5616;42.692;23.312;2022-07-12T00:16:39;95568.69;;;15.17;59.71
11124;BME280;5616;42.692;23.312;2022-07-12T00:19:06;95570.66;;;15.08;59.86
11124;BME280;5616;42.692;23.312;2022-07-12T00:21:34;95564.69;;;15.14;60.52
11124;BME280;5616;42.692;23.312;2022-07-12T00:24:01;95566.69;;;15.19;59.62
11124;BME280;5616;42.692;23.312;2022-07-12T00:26:28;95559.91;;;15.31;60.73
11124;BME280;5616;42.692;23.312;2022-07-12T00:28:57;95571.09;;;15.25;60.22
11124;BME280;5616;42.692;23.312;2022-07-12T00:31:24;95564.25;;;15.17;61.16
11124;BME280;5616;42.692;23.312;2022-07-12T00:33:51;95563.66;;;15.09;60.63
11124;BME280;5616;42.692;23.312;2022-07-12T00:36:18;95562.88;;;15.15;60.35
11124;BME280;5616;42.692;23.312;2022-07-12T00:38:45;95564.63;;;15.01;60.79
11124;BME280;5616;42.692;23.312;2022-07-12T00:41:12;95560.00;;;14.97;61.09
11124;BME280;5616;42.692;23.312;2022-07-12T00:43:39;95563.03;;;15.07;61.00
11124;BME280;5616;42.692;23.312;2022-07-12T00:46:08;95558.28;;;15.17;60.17
11124;BME280;5616;42.692;23.312;2022-07-12T00:48:35;95561.28;;;15.14;60.55
11124;BME280;5616;42.692;23.312;2022-07-12T00:51:03;95559.88;;;15.18;59.65
11124;BME280;5616;42.692;23.312;2022-07-12T00:53:30;95556.47;;;15.17;60.19
11124;BME280;5616;42.692;23.312;2022-07-12T00:55:57;95552.66;;;15.20;58.89
11124;BME280;5616;42.692;23.312;2022-07-12T00:58:25;95549.69;;;15.16;58.46
11124;BME280;5616;42.692;23.312;2022-07-12T01:00:55;95552.88;;;15.25;58.50
11124;BME280;5616;42.692;23.312;2022-07-12T01:03:24;95561.91;;;15.42;58.08
11124;BME280;5616;42.692;23.312;2022-07-12T01:05:52;95555.88;;;15.22;58.20
11124;BME280;5616;42.692;23.312;2022-07-12T01:08:19;95559.09;;;15.30;57.39
11124;BME280;5616;42.692;23.312;2022-07-12T01:10:48;95561.31;;;15.27;58.07
11124;BME280;5616;42.692;23.312;2022-07-12T01:13:15;95555.31;;;15.40;57.70
11124;BME280;5616;42.692;23.312;2022-07-12T01:15:42;95561.16;;;15.48;57.42
11124;BME280;5616;42.692;23.312;2022-07-12T01:18:10;95563.13;;;15.46;57.99
11124;BME280;5616;42.692;23.312;2022-07-12T01:20:39;95560.34;;;15.48;58.20
11124;BME280;5616;42.692;23.312;2022-07-12T01:23:08;95560.50;;;15.33;59.96
11124;BME280;5616;42.692;23.312;2022-07-12T01:25:35;95557.69;;;15.28;59.10
11124;BME280;5616;42.692;23.312;2022-07-12T01:30:29;95553.66;;;15.12;60.02
11124;BME280;5616;42.692;23.312;2022-07-12T01:32:57;95559.44;;;15.08;60.43
11124;BME280;5616;42.692;23.312;2022-07-12T01:35:26;95553.88;;;15.11;59.97
11124;BME280;5616;42.692;23.312;2022-07-12T01:37:53;95556.47;;;15.11;60.59
11124;BME280;5616;42.692;23.312;2022-07-12T01:40:21;95552.47;;;15.15;60.66
11124;BME280;5616;42.692;23.312;2022-07-12T01:42:48;95556.06;;;15.14;60.28
11124;BME280;5616;42.692;23.312;2022-07-12T01:45:16;95552.63;;;15.07;60.34
11124;BME280;5616;42.692;23.312;2022-07-12T01:47:43;95555.44;;;15.05;60.49
11124;BME280;5616;42.692;23.312;2022-07-12T01:50:11;95557.81;;;14.94;60.76
11124;BME280;5616;42.692;23.312;2022-07-12T01:52:39;95561.84;;;15.09;60.55
11124;BME280;5616;42.692;23.312;2022-07-12T01:55:07;95553.06;;;15.04;60.15
11124;BME280;5616;42.692;23.312;2022-07-12T01:57:36;95545.81;;;14.99;60.67
11124;BME280;5616;42.692;23.312;2022-07-12T02:00:04;95555.75;;;14.76;62.06
11124;BME280;5616;42.692;23.312;2022-07-12T02:02:32;95548.38;;;14.86;62.31
11124;BME280;5616;42.692;23.312;2022-07-12T02:04:59;95543.50;;;14.63;62.64
11124;BME280;5616;42.692;23.312;2022-07-12T02:07:27;95549.09;;;14.60;63.31
11124;BME280;5616;42.692;23.312;2022-07-12T02:09:54;95549.25;;;14.46;63.91
11124;BME280;5616;42.692;23.312;2022-07-12T02:12:21;95552.22;;;14.43;62.84
11124;BME280;5616;42.692;23.312;2022-07-12T02:14:50;95557.59;;;14.41;62.83
11124;BME280;5616;42.692;23.312;2022-07-12T02:17:17;95561.59;;;14.37;62.60
11124;BME280;5616;42.692;23.312;2022-07-12T02:19:44;95559.38;;;14.34;62.61
11124;BME280;5616;42.692;23.312;2022-07-12T02:22:11;95558.59;;;14.40;62.99
11124;BME280;5616;42.692;23.312;2022-07-12T02:24:38;95554.38;;;14.39;63.18
11124;BME280;5616;42.692;23.312;2022-07-12T02:27:05;95564.47;;;14.28;62.96
11124;BME280;5616;42.692;23.312;2022-07-12T02:29:32;95559.88;;;14.23;63.47
11124;BME280;5616;42.692;23.312;2022-07-12T02:32:02;95558.69;;;14.26;63.09
11124;BME280;5616;42.692;23.312;2022-07-12T02:34:30;95543.69;;;14.21;63.44
11124;BME280;5616;42.692;23.312;2022-07-12T02:36:57;95555.06;;;14.20;63.10
11124;BME280;5616;42.692;23.312;2022-07-12T02:39:25;95552.44;;;14.14;63.28
11124;BME280;5616;42.692;23.312;2022-07-12T02:41:52;95556.59;;;14.15;63.80
11124;BME280;5616;42.692;23.312;2022-07-12T02:44:19;95564.41;;;14.15;63.86
11124;BME280;5616;42.692;23.312;2022-07-12T02:46:46;95555.84;;;14.14;63.65
11124;BME280;5616;42.692;23.312;2022-07-12T02:49:14;95566.25;;;14.21;64.69
11124;BME280;5616;42.692;23.312;2022-07-12T02:51:41;95569.41;;;14.16;64.32
11124;BME280;5616;42.692;23.312;2022-07-12T02:54:08;95562.38;;;14.10;64.75
11124;BME280;5616;42.692;23.312;2022-07-12T02:56:35;95566.75;;;14.03;64.83
11124;BME280;5616;42.692;23.312;2022-07-12T02:59:02;95560.03;;;13.87;65.82
11124;BME280;5616;42.692;23.312;2022-07-12T03:01:29;95572.81;;;13.89;66.01
11124;BME280;5616;42.692;23.312;2022-07-12T03:03:56;95576.66;;;13.93;65.34
11124;BME280;5616;42.692;23.312;2022-07-12T03:06:24;95572.22;;;13.87;65.77
11124;BME280;5616;42.692;23.312;2022-07-12T03:08:51;95573.97;;;13.80;65.45
11124;BME280;5616;42.692;23.312;2022-07-12T03:11:18;95578.38;;;13.86;65.54
11124;BME280;5616;42.692;23.312;2022-07-12T03:13:44;95587.78;;;13.87;66.15
11124;BME280;5616;42.692;23.312;2022-07-12T03:16:12;95589.69;;;13.99;65.15
11124;BME280;5616;42.692;23.312;2022-07-12T03:18:39;95587.00;;;14.14;64.60
11124;BME280;5616;42.692;23.312;2022-07-12T03:21:06;95595.13;;;14.32;64.23
11124;BME280;5616;42.692;23.312;2022-07-12T03:23:35;95588.75;;;14.35;63.92
11124;BME280;5616;42.692;23.312;2022-07-12T03:26:02;95592.00;;;14.43;63.47
11124;BME280;5616;42.692;23.312;2022-07-12T03:28:29;95597.44;;;14.48;62.61
11124;BME280;5616;42.692;23.312;2022-07-12T03:30:56;95598.63;;;14.52;61.58
11124;BME280;5616;42.692;23.312;2022-07-12T03:33:23;95596.25;;;14.57;61.32
11124;BME280;5616;42.692;23.312;2022-07-12T03:35:50;95596.63;;;14.54;60.94
11124;BME280;5616;42.692;23.312;2022-07-12T03:38:17;95596.94;;;14.38;62.33
11124;BME280;5616;42.692;23.312;2022-07-12T03:40:45;95606.16;;;14.41;61.30
11124;BME280;5616;42.692;23.312;2022-07-12T03:43:12;95596.00;;;14.46;61.20
11124;BME280;5616;42.692;23.312;2022-07-12T03:45:39;95601.22;;;14.46;61.94
11124;BME280;5616;42.692;23.312;2022-07-12T03:48:07;95605.38;;;14.40;62.84
11124;BME280;5616;42.692;23.312;2022-07-12T03:50:34;95595.34;;;14.37;62.29
11124;BME280;5616;42.692;23.312;2022-07-12T03:53:01;95598.13;;;14.36;62.14
11124;BME280;5616;42.692;23.312;2022-07-12T03:55:28;95607.53;;;14.37;62.58
11124;BME280;5616;42.692;23.312;2022-07-12T03:57:56;95601.81;;;14.20;63.09
11124;BME280;5616;42.692;23.312;2022-07-12T04:00:23;95612.03;;;14.28;62.85
11124;BME280;5616;42.692;23.312;2022-07-12T04:02:50;95610.59;;;14.19;63.39
11124;BME280;5616;42.692;23.312;2022-07-12T04:05:19;95606.22;;;14.20;62.67
11124;BME280;5616;42.692;23.312;2022-07-12T04:07:51;95609.78;;;14.19;62.91
11124;BME280;5616;42.692;23.312;2022-07-12T04:10:18;95612.56;;;14.17;62.79
11124;BME280;5616;42.692;23.312;2022-07-12T04:12:45;95612.38;;;14.19;63.03
11124;BME280;5616;42.692;23.312;2022-07-12T04:15:13;95616.97;;;14.17;63.47
11124;BME280;5616;42.692;23.312;2022-07-12T04:17:40;95624.56;;;14.18;63.15
11124;BME280;5616;42.692;23.312;2022-07-12T04:20:09;95628.81;;;14.26;62.69
11124;BME280;5616;42.692;23.312;2022-07-12T04:22:37;95628.69;;;14.34;62.28
11124;BME280;5616;42.692;23.312;2022-07-12T04:25:05;95627.56;;;14.43;62.08
11124;BME280;5616;42.692;23.312;2022-07-12T04:27:33;95625.56;;;14.45;62.48
11124;BME280;5616;42.692;23.312;2022-07-12T04:30:00;95629.78;;;14.46;62.43
11124;BME280;5616;42.692;23.312;2022-07-12T04:32:28;95636.00;;;14.51;62.20
11124;BME280;5616;42.692;23.312;2022-07-12T04:34:55;95630.25;;;14.56;62.01
11124;BME280;5616;42.692;23.312;2022-07-12T04:37:22;95628.69;;;14.61;62.09
11124;BME280;5616;42.692;23.312;2022-07-12T04:39:49;95630.16;;;14.77;61.45
11124;BME280;5616;42.692;23.312;2022-07-12T04:42:16;95642.38;;;14.83;61.82
11124;BME280;5616;42.692;23.312;2022-07-12T04:44:43;95640.47;;;14.98;60.55
11124;BME280;5616;42.692;23.312;2022-07-12T04:47:10;95643.72;;;15.13;59.96
11124;BME280;5616;42.692;23.312;2022-07-12T04:49:38;95633.94;;;15.28;59.60
11124;BME280;5616;42.692;23.312;2022-07-12T04:52:06;95640.97;;;15.41;59.35
11124;BME280;5616;42.692;23.312;2022-07-12T04:54:33;95643.03;;;15.52;59.17
11124;BME280;5616;42.692;23.312;2022-07-12T04:57:00;95646.47;;;15.66;58.12
11124;BME280;5616;42.692;23.312;2022-07-12T04:59:27;95639.28;;;15.74;57.94
11124;BME280;5616;42.692;23.312;2022-07-12T05:01:53;95635.47;;;15.77;59.38
11124;BME280;5616;42.692;23.312;2022-07-12T05:04:20;95640.88;;;15.69;59.30
11124;BME280;5616;42.692;23.312;2022-07-12T05:06:49;95644.13;;;15.90;58.46
11124;BME280;5616;42.692;23.312;2022-07-12T05:09:17;95636.50;;;16.09;58.25
11124;BME280;5616;42.692;23.312;2022-07-12T05:11:44;95643.09;;;16.31;58.12
11124;BME280;5616;42.692;23.312;2022-07-12T05:14:11;95634.66;;;16.55;56.33
11124;BME280;5616;42.692;23.312;2022-07-12T05:16:38;95644.03;;;16.76;56.70
11124;BME280;5616;42.692;23.312;2022-07-12T05:19:05;95638.31;;;17.05;56.30
11124;BME280;5616;42.692;23.312;2022-07-12T05:21:32;95633.25;;;17.61;54.39
11124;BME280;5616;42.692;23.312;2022-07-12T05:24:01;95637.91;;;17.90;53.32
11124;BME280;5616;42.692;23.312;2022-07-12T05:26:28;95636.44;;;18.44;51.07
11124;BME280;5616;42.692;23.312;2022-07-12T05:28:56;95640.66;;;18.87;49.10
11124;BME280;5616;42.692;23.312;2022-07-12T05:31:22;95645.28;;;19.40;47.64
11124;BME280;5616;42.692;23.312;2022-07-12T05:33:50;95641.81;;;19.87;46.13
11124;BME280;5616;42.692;23.312;2022-07-12T05:36:17;95637.91;;;20.31;44.91
11124;BME280;5616;42.692;23.312;2022-07-12T05:38:44;95635.53;;;20.64;45.27
11124;BME280;5616;42.692;23.312;2022-07-12T05:41:12;95633.41;;;21.01;47.01
11124;BME280;5616;42.692;23.312;2022-07-12T05:43:39;95629.66;;;21.65;42.68
11124;BME280;5616;42.692;23.312;2022-07-12T05:46:06;95632.50;;;21.75;43.36
11124;BME280;5616;42.692;23.312;2022-07-12T05:48:34;95627.84;;;22.11;42.91
11124;BME280;5616;42.692;23.312;2022-07-12T05:51:01;95619.31;;;22.70;40.85
11124;BME280;5616;42.692;23.312;2022-07-12T05:53:42;95629.16;;;23.40;38.44
11124;BME280;5616;42.692;23.312;2022-07-12T05:56:09;95623.94;;;23.98;38.95
11124;BME280;5616;42.692;23.312;2022-07-12T05:58:38;95631.66;;;24.37;36.51
11124;BME280;5616;42.692;23.312;2022-07-12T06:01:05;95622.53;;;24.91;35.65
11124;BME280;5616;42.692;23.312;2022-07-12T06:03:32;95625.88;;;25.33;36.85
11124;BME280;5616;42.692;23.312;2022-07-12T06:05:59;95624.72;;;25.86;34.39
11124;BME280;5616;42.692;23.312;2022-07-12T06:08:26;95623.16;;;26.51;33.02
11124;BME280;5616;42.692;23.312;2022-07-12T06:10:53;95617.47;;;27.13;33.56
11124;BME280;5616;42.692;23.312;2022-07-12T06:13:20;95616.50;;;27.58;30.56
11124;BME280;5616;42.692;23.312;2022-07-12T06:15:49;95621.28;;;28.05;30.82
11124;BME280;5616;42.692;23.312;2022-07-12T06:18:16;95615.34;;;28.46;29.26
11124;BME280;5616;42.692;23.312;2022-07-12T06:20:43;95619.03;;;28.79;28.59
11124;BME280;5616;42.692;23.312;2022-07-12T06:23:10;95623.81;;;29.30;28.05
11124;BME280;5616;42.692;23.312;2022-07-12T06:25:36;95616.94;;;29.66;28.27
11124;BME280;5616;42.692;23.312;2022-07-12T06:28:04;95614.81;;;30.05;27.06
11124;BME280;5616;42.692;23.312;2022-07-12T06:30:31;95615.19;;;30.50;26.71
11124;BME280;5616;42.692;23.312;2022-07-12T06:32:59;95615.16;;;31.09;26.25
11124;BME280;5616;42.692;23.312;2022-07-12T06:35:26;95613.16;;;31.69;26.02
11124;BME280;5616;42.692;23.312;2022-07-12T06:37:54;95617.53;;;31.87;25.35
11124;BME280;5616;42.692;23.312;2022-07-12T06:40:21;95616.19;;;32.79;23.61
11124;BME280;5616;42.692;23.312;2022-07-12T06:42:48;95613.88;;;33.34;25.43
11124;BME280;5616;42.692;23.312;2022-07-12T06:45:16;95617.88;;;34.73;21.87
11124;BME280;5616;42.692;23.312;2022-07-12T06:47:43;95612.91;;;36.09;21.06
11124;BME280;5616;42.692;23.312;2022-07-12T06:50:12;95602.97;;;36.43;19.85
11124;BME280;5616;42.692;23.312;2022-07-12T06:52:39;95610.31;;;37.60;18.90
11124;BME280;5616;42.692;23.312;2022-07-12T06:55:07;95609.34;;;39.03;18.67
11124;BME280;5616;42.692;23.312;2022-07-12T06:57:34;95609.53;;;39.76;16.77
11124;BME280;5616;42.692;23.312;2022-07-12T07:00:03;95610.44;;;40.18;16.96
11124;BME280;5616;42.692;23.312;2022-07-12T07:02:31;95596.31;;;40.28;15.45
11124;BME280;5616;42.692;23.312;2022-07-12T07:04:58;95610.28;;;39.42;16.99
11124;BME280;5616;42.692;23.312;2022-07-12T07:07:26;95606.94;;;40.98;15.68
11124;BME280;5616;42.692;23.312;2022-07-12T07:09:53;95606.13;;;41.69;15.08
11124;BME280;5616;42.692;23.312;2022-07-12T07:12:20;95606.56;;;42.67;13.23
11124;BME280;5616;42.692;23.312;2022-07-12T07:14:47;95617.13;;;43.64;13.50
11124;BME280;5616;42.692;23.312;2022-07-12T07:17:14;95605.91;;;44.55;12.54
11124;BME280;5616;42.692;23.312;2022-07-12T07:19:42;95605.81;;;43.07;12.74
11124;BME280;5616;42.692;23.312;2022-07-12T07:22:09;95605.72;;;43.44;13.49
11124;BME280;5616;42.692;23.312;2022-07-12T07:24:37;95610.59;;;43.75;13.69
11124;BME280;5616;42.692;23.312;2022-07-12T07:27:05;95617.63;;;43.29;13.54
11124;BME280;5616;42.692;23.312;2022-07-12T07:29:32;95607.13;;;43.78;12.23
11124;BME280;5616;42.692;23.312;2022-07-12T07:32:16;95606.59;;;44.27;12.29
11124;BME280;5616;42.692;23.312;2022-07-12T07:34:43;95606.69;;;44.56;11.84
11124;BME280;5616;42.692;23.312;2022-07-12T07:37:10;95605.44;;;44.39;12.30
11124;BME280;5616;42.692;23.312;2022-07-12T07:39:39;95601.69;;;44.65;11.62
11124;BME280;5616;42.692;23.312;2022-07-12T07:42:06;95596.59;;;44.67;11.41
11124;BME280;5616;42.692;23.312;2022-07-12T07:44:33;95600.50;;;44.76;11.43
11124;BME280;5616;42.692;23.312;2022-07-12T07:47:00;95607.56;;;45.13;11.00
11124;BME280;5616;42.692;23.312;2022-07-12T07:49:27;95602.09;;;45.55;11.30
11124;BME280;5616;42.692;23.312;2022-07-12T07:51:53;95602.03;;;45.87;11.20
11124;BME280;5616;42.692;23.312;2022-07-12T07:54:20;95595.47;;;45.60;10.85
11124;BME280;5616;42.692;23.312;2022-07-12T07:56:49;95589.03;;;46.26;11.21
11124;BME280;5616;42.692;23.312;2022-07-12T07:59:16;95592.69;;;46.02;10.65
11124;BME280;5616;42.692;23.312;2022-07-12T08:01:42;95593.47;;;45.88;10.72
11124;BME280;5616;42.692;23.312;2022-07-12T08:04:11;95594.75;;;45.41;11.01
11124;BME280;5616;42.692;23.312;2022-07-12T08:06:38;95597.47;;;45.10;11.03
11124;BME280;5616;42.692;23.312;2022-07-12T08:09:05;95590.09;;;41.87;13.04
11124;BME280;5616;42.692;23.312;2022-07-12T08:11:32;95586.19;;;41.58;12.85
11124;BME280;5616;42.692;23.312;2022-07-12T08:14:00;95583.13;;;40.88;13.72
11124;BME280;5616;42.692;23.312;2022-07-12T08:16:27;95582.78;;;40.89;13.35
11124;BME280;5616;42.692;23.312;2022-07-12T08:18:54;95577.06;;;37.68;16.57
11124;BME280;5616;42.692;23.312;2022-07-12T08:21:21;95578.66;;;38.09;16.33
11124;BME280;5616;42.692;23.312;2022-07-12T08:23:48;95573.03;;;36.77;16.75
11124;BME280;5616;42.692;23.312;2022-07-12T08:26:16;95578.28;;;35.67;19.17
11124;BME280;5616;42.692;23.312;2022-07-12T08:28:43;95570.63;;;33.83;19.48
11124;BME280;5616;42.692;23.312;2022-07-12T08:31:11;95568.78;;;32.18;21.11
11124;BME280;5616;42.692;23.312;2022-07-12T08:33:39;95562.13;;;31.08;21.76
11124;BME280;5616;42.692;23.312;2022-07-12T08:36:07;95569.84;;;30.17;24.33
11124;BME280;5616;42.692;23.312;2022-07-12T08:38:34;95565.69;;;30.11;23.69
11124;BME280;5616;42.692;23.312;2022-07-12T08:41:03;95564.75;;;31.84;21.91
11124;BME280;5616;42.692;23.312;2022-07-12T08:43:33;95563.34;;;33.49;20.13
11124;BME280;5616;42.692;23.312;2022-07-12T08:46:02;95559.72;;;35.53;18.35
11124;BME280;5616;42.692;23.312;2022-07-12T08:48:31;95551.50;;;35.29;18.92
11124;BME280;5616;42.692;23.312;2022-07-12T08:51:02;95551.09;;;34.80;17.75
11124;BME280;5616;42.692;23.312;2022-07-12T08:53:30;95556.50;;;32.70;26.29
11124;BME280;5616;42.692;23.312;2022-07-12T08:55:57;95551.63;;;30.70;25.15
11124;BME280;5616;42.692;23.312;2022-07-12T08:58:25;95550.22;;;29.81;26.33
11124;BME280;5616;42.692;23.312;2022-07-12T09:00:52;95551.31;;;29.38;25.49
11124;BME280;5616;42.692;23.312;2022-07-12T09:03:19;95554.84;;;28.91;24.64
11124;BME280;5616;42.692;23.312;2022-07-12T09:05:52;95549.53;;;29.52;22.48
11124;BME280;5616;42.692;23.312;2022-07-12T09:08:28;95545.34;;;31.43;21.42
11124;BME280;5616;42.692;23.312;2022-07-12T09:10:57;95547.56;;;33.31;19.63
11124;BME280;5616;42.692;23.312;2022-07-12T09:13:49;95535.88;;;35.72;17.36
11124;BME280;5616;42.692;23.312;2022-07-12T09:16:18;95535.41;;;35.70;18.20
11124;BME280;5616;42.692;23.312;2022-07-12T09:18:46;95536.97;;;36.12;17.70
11124;BME280;5616;42.692;23.312;2022-07-12T09:21:25;95534.19;;;35.18;17.80
11124;BME280;5616;42.692;23.312;2022-07-12T09:23:54;95540.81;;;34.27;18.93
11124;BME280;5616;42.692;23.312;2022-07-12T09:26:21;95535.25;;;34.50;17.69
11124;BME280;5616;42.692;23.312;2022-07-12T09:28:49;95532.16;;;35.15;17.46
11124;BME280;5616;42.692;23.312;2022-07-12T09:31:18;95532.84;;;35.94;17.60
11124;BME280;5616;42.692;23.312;2022-07-12T09:33:59;95530.28;;;35.98;17.36
11124;BME280;5616;42.692;23.312;2022-07-12T09:36:55;95524.88;;;36.18;16.33
11124;BME280;5616;42.692;23.312;2022-07-12T09:39:23;95517.63;;;36.31;16.89
11124;BME280;5616;42.692;23.312;2022-07-12T09:41:53;95527.22;;;35.17;17.42
11124;BME280;5616;42.692;23.312;2022-07-12T09:44:20;95535.63;;;34.05;17.12
11124;BME280;5616;42.692;23.312;2022-07-12T09:46:48;95531.75;;;32.55;22.18
11124;BME280;5616;42.692;23.312;2022-07-12T09:49:16;95529.22;;;31.84;21.92
11124;BME280;5616;42.692;23.312;2022-07-12T09:51:43;95534.25;;;30.86;24.56
11124;BME280;5616;42.692;23.312;2022-07-12T09:54:14;95533.81;;;29.37;23.31
11124;BME280;5616;42.692;23.312;2022-07-12T09:56:52;95527.09;;;29.58;26.09
11124;BME280;5616;42.692;23.312;2022-07-12T09:59:23;95521.16;;;29.47;24.12
11124;BME280;5616;42.692;23.312;2022-07-12T10:01:50;95526.59;;;29.37;21.39
11124;BME280;5616;42.692;23.312;2022-07-12T10:04:21;95535.38;;;29.38;23.64
11124;BME280;5616;42.692;23.312;2022-07-12T10:06:49;95525.38;;;29.48;21.60
11124;BME280;5616;42.692;23.312;2022-07-12T10:09:18;95523.50;;;29.30;21.40
11124;BME280;5616;42.692;23.312;2022-07-12T10:11:46;95520.28;;;29.33;21.63
11124;BME280;5616;42.692;23.312;2022-07-12T10:14:14;95517.78;;;29.18;23.16
11124;BME280;5616;42.692;23.312;2022-07-12T10:16:42;95511.66;;;28.99;21.29
11124;BME280;5616;42.692;23.312;2022-07-12T10:19:26;95524.06;;;29.27;23.12
11124;BME280;5616;42.692;23.312;2022-07-12T10:21:54;95516.91;;;29.04;23.43
11124;BME280;5616;42.692;23.312;2022-07-12T10:24:49;95523.13;;;28.76;24.18
11124;BME280;5616;42.692;23.312;2022-07-12T10:27:30;95522.28;;;28.51;26.47
11124;BME280;5616;42.692;23.312;2022-07-12T10:30:17;95512.34;;;28.10;23.28
11124;BME280;5616;42.692;23.312;2022-07-12T10:32:45;95496.47;;;28.05;24.35
11124;BME280;5616;42.692;23.312;2022-07-12T10:35:16;95510.59;;;28.29;24.53
11124;BME280;5616;42.692;23.312;2022-07-12T10:38:17;95496.91;;;28.40;23.07
11124;BME280;5616;42.692;23.312;2022-07-12T10:40:47;95504.38;;;28.38;25.51
11124;BME280;5616;42.692;23.312;2022-07-12T10:43:19;95507.25;;;28.42;24.32
11124;BME280;5616;42.692;23.312;2022-07-12T10:45:47;95494.25;;;28.64;22.97
11124;BME280;5616;42.692;23.312;2022-07-12T10:48:23;95500.50;;;28.78;23.20
11124;BME280;5616;42.692;23.312;2022-07-12T10:50:51;95491.75;;;28.96;24.30
11124;BME280;5616;42.692;23.312;2022-07-12T10:53:29;95497.44;;;28.66;24.64
11124;BME280;5616;42.692;23.312;2022-07-12T10:56:13;95504.50;;;28.52;22.86
11124;BME280;5616;42.692;23.312;2022-07-12T10:58:43;95491.81;;;28.44;22.50
11124;BME280;5616;42.692;23.312;2022-07-12T11:01:11;95498.56;;;28.08;25.40
11124;BME280;5616;42.692;23.312;2022-07-12T11:03:39;95497.66;;;27.88;25.63
11124;BME280;5616;42.692;23.312;2022-07-12T11:06:09;95494.88;;;28.04;24.09
11124;BME280;5616;42.692;23.312;2022-07-12T11:08:50;95498.28;;;27.75;25.62
11124;BME280;5616;42.692;23.312;2022-07-12T11:11:20;95500.94;;;27.75;25.99
11124;BME280;5616;42.692;23.312;2022-07-12T11:13:47;95498.28;;;27.75;26.34
11124;BME280;5616;42.692;23.312;2022-07-12T11:16:14;95493.22;;;27.40;27.36
11124;BME280;5616;42.692;23.312;2022-07-12T11:18:42;95493.69;;;27.52;26.04
11124;BME280;5616;42.692;23.312;2022-07-12T11:21:09;95495.03;;;27.83;25.15
11124;BME280;5616;42.692;23.312;2022-07-12T11:23:37;95503.38;;;28.01;27.16
11124;BME280;5616;42.692;23.312;2022-07-12T11:26:07;95501.84;;;27.95;25.50
11124;BME280;5616;42.692;23.312;2022-07-12T11:28:36;95495.69;;;27.99;25.65
11124;BME280;5616;42.692;23.312;2022-07-12T11:31:05;95497.44;;;28.14;25.86
11124;BME280;5616;42.692;23.312;2022-07-12T11:33:34;95493.28;;;27.69;26.85
11124;BME280;5616;42.692;23.312;2022-07-12T11:36:03;95488.94;;;27.83;26.46
11124;BME280;5616;42.692;23.312;2022-07-12T11:38:32;95485.59;;;27.28;27.64
11124;BME280;5616;42.692;23.312;2022-07-12T11:40:59;95488.69;;;27.02;26.44
11124;BME280;5616;42.692;23.312;2022-07-12T11:43:27;95483.63;;;27.00;27.08
11124;BME280;5616;42.692;23.312;2022-07-12T11:45:57;95502.91;;;27.16;25.87
11124;BME280;5616;42.692;23.312;2022-07-12T11:48:24;95490.81;;;27.00;25.27
11124;BME280;5616;42.692;23.312;2022-07-12T11:50:52;95484.47;;;26.96;25.70
11124;BME280;5616;42.692;23.312;2022-07-12T11:53:21;95468.03;;;26.94;26.20
11124;BME280;5616;42.692;23.312;2022-07-12T11:55:50;95472.06;;;26.86;27.67
11124;BME280;5616;42.692;23.312;2022-07-12T11:58:18;95476.59;;;26.76;26.73
11124;BME280;5616;42.692;23.312;2022-07-12T12:00:46;95472.84;;;26.82;26.31
11124;BME280;5616;42.692;23.312;2022-07-12T12:03:16;95467.81;;;26.85;27.15
11124;BME280;5616;42.692;23.312;2022-07-12T12:05:43;95475.97;;;26.99;24.99
11124;BME280;5616;42.692;23.312;2022-07-12T12:08:12;95478.06;;;27.02;25.73
11124;BME280;5616;42.692;23.312;2022-07-12T12:10:40;95474.75;;;26.81;25.78
11124;BME280;5616;42.692;23.312;2022-07-12T12:13:13;95479.47;;;26.89;25.72
11124;BME280;5616;42.692;23.312;2022-07-12T12:15:41;95467.03;;;26.80;28.37
11124;BME280;5616;42.692;23.312;2022-07-12T12:18:08;95475.44;;;26.97;26.06
11124;BME280;5616;42.692;23.312;2022-07-12T12:20:37;95462.34;;;27.15;25.24
11124;BME280;5616;42.692;23.312;2022-07-12T12:23:06;95474.50;;;27.21;25.77
11124;BME280;5616;42.692;23.312;2022-07-12T12:25:33;95470.44;;;27.34;26.10
11124;BME280;5616;42.692;23.312;2022-07-12T12:28:01;95465.34;;;27.43;25.52
11124;BME280;5616;42.692;23.312;2022-07-12T12:30:30;95469.56;;;27.49;25.44
11124;BME280;5616;42.692;23.312;2022-07-12T12:32:58;95461.59;;;27.49;28.58
11124;BME280;5616;42.692;23.312;2022-07-12T12:35:30;95460.47;;;27.60;27.43
11124;BME280;5616;42.692;23.312;2022-07-12T12:38:00;95462.22;;;27.69;25.70
11124;BME280;5616;42.692;23.312;2022-07-12T12:40:29;95458.13;;;27.82;25.02
11124;BME280;5616;42.692;23.312;2022-07-12T12:43:06;95468.75;;;27.82;26.21
11124;BME280;5616;42.692;23.312;2022-07-12T12:45:34;95465.34;;;27.81;28.72
11124;BME280;5616;42.692;23.312;2022-07-12T12:48:03;95465.66;;;27.41;27.26
11124;BME280;5616;42.692;23.312;2022-07-12T12:50:38;95462.75;;;27.32;25.17
11124;BME280;5616;42.692;23.312;2022-07-12T12:53:12;95463.69;;;27.13;27.04
11124;BME280;5616;42.692;23.312;2022-07-12T12:55:40;95450.63;;;26.78;27.70
11124;BME280;5616;42.692;23.312;2022-07-12T12:58:07;95453.53;;;26.81;29.78
11124;BME280;5616;42.692;23.312;2022-07-12T13:00:36;95464.31;;;27.00;27.03
11124;BME280;5616;42.692;23.312;2022-07-12T13:03:05;95460.81;;;27.04;26.29
11124;BME280;5616;42.692;23.312;2022-07-12T13:05:33;95459.75;;;27.05;25.83
11124;BME280;5616;42.692;23.312;2022-07-12T13:08:00;95453.50;;;27.30;25.52
11124;BME280;5616;42.692;23.312;2022-07-12T13:10:28;95462.16;;;27.46;28.82